createdAt,value
2022-12-09T00:04:29.360Z,39.78
2022-12-09T00:09:35.026Z,40.21
2022-12-09T00:14:38.811Z,39.49
2022-12-09T00:19:43.540Z,40.02
2022-12-09T00:24:47.228Z,39.10
2022-12-09T00:29:53.135Z,39.87
2022-12-09T00:34:57.869Z,39.17
2022-12-09T00:40:01.262Z,39.31
2022-12-09T00:45:08.496Z,39.30
2022-12-09T00:50:13.687Z,40.94
2022-12-09T00:55:17.418Z,40.63
2022-12-09T01:00:21.077Z,70.09
2022-12-09T01:05:26.414Z,37.51
2022-12-09T01:10:30.049Z,37.86
2022-12-09T01:15:35.928Z,37.30
2022-12-09T01:20:43.277Z,36.67
2022-12-09T01:25:47.120Z,37.47
2022-12-09T01:30:53.038Z,37.36
2022-12-09T01:35:57.991Z,37.66
2022-12-09T01:41:01.556Z,38.34
2022-12-09T01:46:07.964Z,37.69
2022-12-09T01:51:17.803Z,38.14
2022-12-09T01:56:24.543Z,37.74
2022-12-09T02:01:30.848Z,37.75
2022-12-09T02:06:37.035Z,41.46
2022-12-09T02:11:51.055Z,41.34
2022-12-09T02:17:04.971Z,41.71
2022-12-09T02:22:14.532Z,41.88
2022-12-09T02:27:21.947Z,41.50
2022-12-09T02:32:40.291Z,41.43
2022-12-09T02:37:54.233Z,42.21
2022-12-09T02:43:01.845Z,42.74
2022-12-09T02:48:11.816Z,41.36
2022-12-09T02:53:17.845Z,42.34
2022-12-09T02:58:21.317Z,43.20
2022-12-09T03:03:26.333Z,42.03
2022-12-09T03:08:38.477Z,41.96
2022-12-09T03:13:47.452Z,40.80
2022-12-09T03:18:57.397Z,41.60
2022-12-09T03:24:09.004Z,45.00
2022-12-09T03:29:18.382Z,41.23
2022-12-09T03:34:26.327Z,39.26
2022-12-09T03:39:34.674Z,39.09
2022-12-09T03:44:46.067Z,39.72
2022-12-09T03:49:50.014Z,42.49
2022-12-09T03:54:58.921Z,39.11
2022-12-09T04:00:04.177Z,38.68
2022-12-09T04:05:16.208Z,38.38
2022-12-09T04:10:24.307Z,41.79
2022-12-09T04:15:30.097Z,42.34
2022-12-09T04:20:35.692Z,41.52
2022-12-09T04:25:40.338Z,38.75
2022-12-09T04:30:45.775Z,41.05
2022-12-09T04:35:49.328Z,42.00
2022-12-09T04:40:56.779Z,42.39
2022-12-09T04:46:04.352Z,43.15
2022-12-09T04:51:08.534Z,43.96
2022-12-09T04:56:15.296Z,44.36
2022-12-09T05:01:24.965Z,44.34
2022-12-09T05:06:36.621Z,44.09
2022-12-09T05:11:41.636Z,43.81
2022-12-09T05:16:48.212Z,43.54
2022-12-09T05:21:51.879Z,44.31
2022-12-09T05:26:59.342Z,44.49
2022-12-09T05:32:05.271Z,45.88
2022-12-09T05:37:09.041Z,45.69
2022-12-09T05:42:13.931Z,47.06
2022-12-09T05:47:17.645Z,50.30
2022-12-09T05:52:21.120Z,51.21
2022-12-09T05:57:25.777Z,49.82
2022-12-09T06:02:30.423Z,50.57
2022-12-09T06:07:34.995Z,49.49
2022-12-09T06:12:39.843Z,47.77
2022-12-09T06:17:43.433Z,45.82
2022-12-09T06:22:46.923Z,46.05
2022-12-09T06:27:52.636Z,50.54
2022-12-09T06:32:58.462Z,50.04
2022-12-09T06:38:01.866Z,45.77
2022-12-09T06:43:06.854Z,48.25
2022-12-09T06:48:12.666Z,49.67
2022-12-09T06:53:16.580Z,47.22
2022-12-09T06:58:21.556Z,46.37
2022-12-09T07:03:25.444Z,48.79
2022-12-09T07:08:29.248Z,47.68
2022-12-09T07:13:34.002Z,45.90
2022-12-09T07:18:38.154Z,47.13
2022-12-09T07:23:42.314Z,47.33
2022-12-09T07:28:50.641Z,47.18
2022-12-09T07:33:56.367Z,47.27
2022-12-09T07:39:04.044Z,49.27
2022-12-09T07:44:12.636Z,51.78
2022-12-09T07:49:16.767Z,51.22
2022-12-09T07:54:21.369Z,52.84
2022-12-09T07:59:26.526Z,52.82
2022-12-09T08:04:32.814Z,53.71
2022-12-09T08:09:36.825Z,59.10
2022-12-09T08:14:44.028Z,60.91
2022-12-09T08:19:51.063Z,60.52
2022-12-09T08:24:59.597Z,58.41
2022-12-09T08:30:08.018Z,58.21
2022-12-09T08:35:15.260Z,57.31
2022-12-09T08:40:19.145Z,56.64
2022-12-09T08:45:26.251Z,58.63
2022-12-09T08:50:29.748Z,56.32
2022-12-09T08:55:39.484Z,55.41
2022-12-09T09:00:44.725Z,54.91
2022-12-09T09:05:48.500Z,53.13
2022-12-09T09:10:55.104Z,52.57
2022-12-09T09:16:00.326Z,53.47
2022-12-09T09:21:07.586Z,55.80
2022-12-09T09:26:11.232Z,54.57
2022-12-09T09:31:17.558Z,55.59
2022-12-09T09:36:25.074Z,55.56
2022-12-09T09:41:42.719Z,56.37
2022-12-09T09:46:50.000Z,54.16
2022-12-09T09:51:54.182Z,52.84
2022-12-09T09:57:06.479Z,57.93
2022-12-09T10:02:18.306Z,59.00
2022-12-09T10:07:30.304Z,61.39
2022-12-09T10:12:44.000Z,60.93
2022-12-09T10:17:51.464Z,61.85
2022-12-09T10:23:00.253Z,60.48
2022-12-09T10:28:10.279Z,62.20
2022-12-09T10:33:16.714Z,61.26
2022-12-09T10:38:22.203Z,60.99
2022-12-09T10:43:39.582Z,61.82
2022-12-09T10:48:52.950Z,63.48
2022-12-09T10:54:00.903Z,63.22
2022-12-09T10:59:12.639Z,62.19
2022-12-09T11:04:24.107Z,61.79
2022-12-09T11:09:29.208Z,60.44
2022-12-09T11:14:37.417Z,58.21
2022-12-09T11:19:47.065Z,59.23
2022-12-09T11:24:50.766Z,60.85
2022-12-09T11:30:12.550Z,59.19
2022-12-09T11:35:22.303Z,57.08
2022-12-09T11:40:30.639Z,58.76
2022-12-09T11:45:38.800Z,63.09
2022-12-09T11:50:49.632Z,62.11
2022-12-09T11:55:54.720Z,60.63
2022-12-09T12:01:01.712Z,61.25
2022-12-09T12:06:09.860Z,60.42
2022-12-09T12:11:15.754Z,60.82
2022-12-09T12:16:24.879Z,63.45
2022-12-09T12:21:40.274Z,59.53
2022-12-09T12:26:53.643Z,60.91
2022-12-09T12:32:11.632Z,59.87
2022-12-09T12:37:30.081Z,62.17
2022-12-09T12:42:39.412Z,61.85
2022-12-09T12:47:48.668Z,61.98
2022-12-09T12:53:01.847Z,63.11
2022-12-09T12:58:11.900Z,71.95
2022-12-09T13:03:22.923Z,65.78
2022-12-09T13:08:38.383Z,66.10
2022-12-09T13:13:46.038Z,71.21
2022-12-09T13:18:52.239Z,68.84
2022-12-09T13:24:04.331Z,67.80
2022-12-09T13:29:18.223Z,69.67
2022-12-09T13:34:27.983Z,69.33
2022-12-09T13:39:46.187Z,70.13
2022-12-09T13:45:05.684Z,71.41
2022-12-09T13:50:23.694Z,72.60
2022-12-09T13:55:40.059Z,71.41
2022-12-09T14:01:02.824Z,71.99
2022-12-09T14:06:20.285Z,70.20
2022-12-09T14:11:48.204Z,68.99
2022-12-09T14:16:53.637Z,69.38
2022-12-09T14:22:18.062Z,68.76
2022-12-09T14:27:24.776Z,71.17
2022-12-09T14:32:32.201Z,71.23
2022-12-09T14:37:42.430Z,71.53
2022-12-09T14:42:51.479Z,70.84
2022-12-09T14:47:57.206Z,71.44
2022-12-09T14:53:05.770Z,69.62
2022-12-09T14:58:18.533Z,70.78
2022-12-09T15:03:35.427Z,70.63
2022-12-09T15:08:46.864Z,69.16
2022-12-09T15:13:52.684Z,69.53
2022-12-09T15:18:59.627Z,71.56
2022-12-09T15:24:03.082Z,75.31
2022-12-09T15:29:06.599Z,78.58
2022-12-09T15:34:12.963Z,77.82
2022-12-09T15:39:22.473Z,79.31
2022-12-09T15:44:28.096Z,80.94
2022-12-09T15:49:40.642Z,81.64
2022-12-09T15:54:47.644Z,83.31
2022-12-09T15:59:56.048Z,81.98
2022-12-09T16:05:07.530Z,77.39
2022-12-09T16:10:14.656Z,74.18
2022-12-09T16:15:39.965Z,71.80
2022-12-09T16:20:45.888Z,80.00
2022-12-09T16:25:50.553Z,76.24
2022-12-09T16:30:58.917Z,77.38
2022-12-09T16:36:05.524Z,73.41
2022-12-09T16:41:12.682Z,71.91
2022-12-09T16:46:36.246Z,72.12
2022-12-09T16:51:41.713Z,73.88
2022-12-09T16:56:47.488Z,76.84
2022-12-09T17:01:51.477Z,75.88
2022-12-09T17:06:56.350Z,76.19
2022-12-09T17:11:59.783Z,74.10
2022-12-09T17:17:03.849Z,81.95
2022-12-09T17:22:10.630Z,87.72
2022-12-09T17:27:14.262Z,96.28
2022-12-09T17:32:17.658Z,101.25
2022-12-09T17:37:24.954Z,106.27
2022-12-09T17:42:28.458Z,109.43
2022-12-09T17:47:31.932Z,106.97
2022-12-09T17:52:36.727Z,106.07
2022-12-09T17:57:42.711Z,107.12
2022-12-09T18:02:46.109Z,107.70
2022-12-09T18:07:54.151Z,100.61
2022-12-09T18:12:57.590Z,91.04
2022-12-09T18:18:00.950Z,89.10
2022-12-09T18:23:07.882Z,98.02
2022-12-09T18:28:11.236Z,90.54
2022-12-09T18:33:14.749Z,90.10
2022-12-09T18:38:21.733Z,88.60
2022-12-09T18:43:25.073Z,85.01
2022-12-09T18:48:28.676Z,85.59
2022-12-09T18:53:33.371Z,115.99
2022-12-09T18:59:04.903Z,101.08
2022-12-09T19:04:04.785Z,85.59
2022-12-09T19:09:12.789Z,89.86
2022-12-09T19:14:17.417Z,88.32
2022-12-09T19:19:24.550Z,87.76
2022-12-09T19:24:33.073Z,87.22
2022-12-09T19:29:36.510Z,89.19
2022-12-09T19:34:40.048Z,89.06
2022-12-09T19:39:46.664Z,89.06
2022-12-09T19:45:01.586Z,88.92
2022-12-09T19:50:07.395Z,85.39
2022-12-09T19:55:13.495Z,85.88
2022-12-09T20:00:17.316Z,87.20
2022-12-09T20:05:21.074Z,87.01
2022-12-09T20:10:27.885Z,85.95
2022-12-09T20:15:31.286Z,84.17
2022-12-09T20:20:35.261Z,83.26
2022-12-09T20:25:40.046Z,84.47
2022-12-09T20:30:43.387Z,82.81
2022-12-09T20:35:47.661Z,82.31
2022-12-09T20:40:54.541Z,86.15
2022-12-09T20:46:00.475Z,82.43
2022-12-09T20:51:04.607Z,83.16
2022-12-09T20:56:11.041Z,83.63
2022-12-09T21:01:16.123Z,83.31
2022-12-09T21:06:32.598Z,83.26
2022-12-09T21:11:40.054Z,83.80
2022-12-09T21:16:50.282Z,81.91
2022-12-09T21:21:59.034Z,82.36
2022-12-09T21:27:03.755Z,83.87
2022-12-09T21:32:07.163Z,86.15
2022-12-09T21:37:13.305Z,88.07
2022-12-09T21:42:18.003Z,86.67
2022-12-09T21:47:23.846Z,88.21
2022-12-09T21:52:27.220Z,88.52
2022-12-09T21:57:32.155Z,87.98
2022-12-09T22:02:35.788Z,88.05
2022-12-09T22:07:39.298Z,86.78
2022-12-09T22:12:44.096Z,84.50
2022-12-09T22:17:52.731Z,88.92
2022-12-09T22:22:58.195Z,82.14
2022-12-09T22:28:02.950Z,81.35
2022-12-09T22:33:08.861Z,79.77
2022-12-09T22:38:14.694Z,79.50
2022-12-09T22:43:22.138Z,80.61
2022-12-09T22:48:25.504Z,80.29
2022-12-09T22:53:28.980Z,79.07
2022-12-09T22:58:35.237Z,78.72
2022-12-09T23:03:41.779Z,78.49
2022-12-09T23:08:45.983Z,78.39
2022-12-09T23:13:50.897Z,78.34
2022-12-09T23:18:56.049Z,77.64
2022-12-09T23:24:03.490Z,79.07
2022-12-09T23:29:09.394Z,80.66
2022-12-09T23:34:13.824Z,82.97
2022-12-09T23:39:18.473Z,83.40
2022-12-09T23:44:23.234Z,84.78
2022-12-09T23:49:26.613Z,86.00
2022-12-09T23:54:32.507Z,84.84
2022-12-09T23:59:37.306Z,82.98
